createdAt,value
2018-09-20T00:00:41.510Z,18.09
2018-09-20T00:01:42.899Z,18.09
2018-09-20T00:02:44.279Z,18.04
2018-09-20T00:03:45.660Z,18.02
2018-09-20T00:04:47.062Z,18.04
2018-09-20T00:05:48.444Z,17.99
2018-09-20T00:06:49.836Z,18.04
2018-09-20T00:07:51.214Z,17.98
2018-09-20T00:08:52.602Z,18.02
2018-09-20T00:09:53.982Z,18.01
2018-09-20T00:10:55.378Z,18.05
2018-09-20T00:11:56.759Z,18.07
2018-09-20T00:12:58.143Z,18.07
2018-09-20T00:13:59.530Z,18.07
2018-09-20T00:15:00.910Z,18.16
2018-09-20T00:16:02.301Z,18.07
2018-09-20T00:17:03.688Z,18.05
2018-09-20T00:18:05.083Z,18.10
2018-09-20T00:19:06.468Z,18.02
2018-09-20T00:20:07.849Z,18.07
2018-09-20T00:21:09.231Z,18.04
2018-09-20T00:22:10.619Z,18.01
2018-09-20T00:23:12.009Z,18.02
2018-09-20T00:24:13.394Z,18.04
2018-09-20T00:25:14.781Z,18.04
2018-09-20T00:26:16.166Z,17.98
2018-09-20T00:27:17.549Z,18.05
2018-09-20T00:28:18.940Z,18.02
2018-09-20T00:29:20.320Z,18.02
2018-09-20T00:30:21.714Z,18.09
2018-09-20T00:31:23.097Z,18.04
2018-09-20T00:32:24.485Z,18.04
2018-09-20T00:33:25.868Z,18.05
2018-09-20T00:34:27.250Z,18.02
2018-09-20T00:35:28.630Z,17.96
2018-09-20T00:36:30.010Z,17.95
2018-09-20T00:37:31.396Z,17.94
2018-09-20T00:38:32.782Z,17.99
2018-09-20T00:39:34.170Z,17.89
2018-09-20T00:40:35.570Z,17.91
2018-09-20T00:41:36.936Z,17.89
2018-09-20T00:42:38.317Z,17.80
2018-09-20T00:43:39.705Z,17.89
2018-09-20T00:44:41.098Z,17.80
2018-09-20T00:45:42.476Z,17.81
2018-09-20T00:46:43.863Z,17.81
2018-09-20T00:47:45.246Z,17.70
2018-09-20T00:48:46.632Z,17.70
2018-09-20T00:49:48.016Z,17.71
2018-09-20T00:50:49.397Z,17.63
2018-09-20T00:51:50.790Z,17.73
2018-09-20T00:52:52.167Z,17.68
2018-09-20T00:53:53.555Z,17.54
2018-09-20T00:54:54.949Z,17.51
2018-09-20T00:55:56.329Z,17.57
2018-09-20T00:56:57.719Z,17.51
2018-09-20T00:57:59.104Z,17.49
2018-09-20T00:59:00.487Z,17.47
2018-09-20T01:00:01.875Z,17.49
2018-09-20T01:01:03.262Z,17.46
2018-09-20T01:02:04.646Z,17.47
2018-09-20T01:03:06.041Z,17.42
2018-09-20T01:04:07.427Z,17.45
2018-09-20T01:05:08.804Z,17.42
2018-09-20T01:06:10.182Z,17.45
2018-09-20T01:07:11.568Z,17.43
2018-09-20T01:08:12.970Z,17.38
2018-09-20T01:09:14.343Z,17.33
2018-09-20T01:10:15.732Z,17.42
2018-09-20T01:11:17.125Z,17.42
2018-09-20T01:12:18.510Z,17.33
2018-09-20T01:13:19.896Z,17.38
2018-09-20T01:14:21.284Z,17.42
2018-09-20T01:15:22.660Z,17.36
2018-09-20T01:16:24.059Z,17.40
2018-09-20T01:17:25.437Z,17.42
2018-09-20T01:18:26.825Z,17.42
2018-09-20T01:19:28.212Z,17.42
2018-09-20T01:20:29.592Z,17.33
2018-09-20T01:21:30.977Z,17.35
2018-09-20T01:22:32.355Z,17.40
2018-09-20T01:23:33.748Z,17.40
2018-09-20T01:24:35.139Z,17.33
2018-09-20T01:25:36.519Z,17.38
2018-09-20T01:26:37.915Z,17.33
2018-09-20T01:27:39.303Z,17.32
2018-09-20T01:28:40.680Z,17.35
2018-09-20T01:29:42.069Z,17.32
2018-09-20T01:30:43.477Z,17.33
2018-09-20T01:31:44.852Z,17.21
2018-09-20T01:32:46.226Z,17.21
2018-09-20T01:33:47.618Z,17.18
2018-09-20T01:34:49.008Z,17.22
2018-09-20T01:35:50.394Z,17.09
2018-09-20T01:36:51.784Z,17.10
2018-09-20T01:37:53.168Z,17.09
2018-09-20T01:38:54.546Z,17.18
2018-09-20T01:39:55.936Z,17.05
2018-09-20T01:40:57.325Z,17.07
2018-09-20T01:41:58.713Z,17.07
2018-09-20T01:43:00.092Z,17.06
2018-09-20T01:44:01.473Z,17.05
2018-09-20T01:45:02.871Z,17.03
2018-09-20T01:46:04.249Z,17.02
2018-09-20T01:47:05.639Z,17.10
2018-09-20T01:48:07.026Z,17.07
2018-09-20T01:49:08.411Z,17.10
2018-09-20T01:50:09.797Z,17.14
2018-09-20T01:51:11.181Z,17.14
2018-09-20T01:52:12.569Z,17.12
2018-09-20T01:53:13.952Z,17.05
2018-09-20T01:54:15.335Z,17.06
2018-09-20T01:55:16.721Z,17.02
2018-09-20T01:56:18.106Z,17.05
2018-09-20T01:57:19.493Z,17.03
2018-09-20T01:58:20.890Z,17.05
2018-09-20T01:59:22.268Z,17.05
2018-09-20T02:00:23.653Z,17.07
2018-09-20T02:01:25.040Z,17.06
2018-09-20T02:02:26.432Z,17.05
2018-09-20T02:03:27.810Z,17.05
2018-09-20T02:04:29.198Z,17.05
2018-09-20T02:05:30.585Z,17.06
2018-09-20T02:06:31.970Z,17.02
2018-09-20T02:07:33.349Z,16.99
2018-09-20T02:08:34.740Z,16.99
2018-09-20T02:09:36.129Z,16.99
2018-09-20T02:10:37.512Z,16.98
2018-09-20T02:11:38.895Z,16.96
2018-09-20T02:12:40.285Z,17.00
2018-09-20T02:13:41.677Z,17.00
2018-09-20T02:14:43.067Z,16.98
2018-09-20T02:15:44.449Z,16.99
2018-09-20T02:16:45.833Z,16.95
2018-09-20T02:17:47.216Z,16.91
2018-09-20T02:18:48.610Z,16.98
2018-09-20T02:19:49.997Z,16.92
2018-09-20T02:20:51.377Z,16.91
2018-09-20T02:21:52.761Z,16.95
2018-09-20T02:22:54.144Z,16.95
2018-09-20T02:23:55.533Z,16.91
2018-09-20T02:24:56.914Z,16.82
2018-09-20T02:25:58.308Z,16.81
2018-09-20T02:26:59.693Z,16.81
2018-09-20T02:28:01.076Z,16.80
2018-09-20T02:29:02.460Z,16.81
2018-09-20T02:30:03.844Z,16.82
2018-09-20T02:31:05.226Z,16.80
2018-09-20T02:32:06.614Z,16.77
2018-09-20T02:33:07.998Z,16.80
2018-09-20T02:34:09.392Z,16.70
2018-09-20T02:35:10.765Z,16.72
2018-09-20T02:36:12.153Z,16.70
2018-09-20T02:37:13.540Z,16.72
2018-09-20T02:38:14.928Z,16.75
2018-09-20T02:39:16.313Z,16.73
2018-09-20T02:40:17.701Z,16.77
2018-09-20T02:41:19.089Z,16.75
2018-09-20T02:42:20.472Z,16.84
2018-09-20T02:43:21.861Z,16.77
2018-09-20T02:44:23.232Z,16.75
2018-09-20T02:45:24.621Z,16.81
2018-09-20T02:46:26.012Z,16.75
2018-09-20T02:47:27.392Z,16.72
2018-09-20T02:48:28.784Z,16.73
2018-09-20T02:49:30.162Z,16.72
2018-09-20T02:50:31.556Z,16.77
2018-09-20T02:51:32.941Z,16.72
2018-09-20T02:52:34.321Z,16.73
2018-09-20T02:53:35.708Z,16.65
2018-09-20T02:54:37.090Z,16.66
2018-09-20T02:55:38.477Z,16.69
2018-09-20T02:56:40.510Z,16.63
2018-09-20T02:57:41.897Z,16.63
2018-09-20T02:58:43.268Z,16.62
2018-09-20T02:59:44.654Z,16.62
2018-09-20T03:00:46.046Z,16.59
2018-09-20T03:01:47.433Z,16.50
2018-09-20T03:02:48.823Z,16.54
2018-09-20T03:03:50.207Z,16.55
2018-09-20T03:04:51.592Z,16.57
2018-09-20T03:05:52.986Z,16.59
2018-09-20T03:06:54.370Z,16.47
2018-09-20T03:07:55.756Z,16.59
2018-09-20T03:08:57.144Z,16.54
2018-09-20T03:09:58.545Z,16.52
2018-09-20T03:10:59.921Z,16.50
2018-09-20T03:12:01.318Z,16.48
2018-09-20T03:13:02.701Z,16.48
2018-09-20T03:14:04.090Z,16.51
2018-09-20T03:15:05.477Z,16.52
2018-09-20T03:16:06.857Z,16.48
2018-09-20T03:17:08.243Z,16.48
2018-09-20T03:18:09.627Z,16.45
2018-09-20T03:19:11.011Z,16.48
2018-09-20T03:20:12.389Z,16.47
2018-09-20T03:21:13.784Z,16.47
2018-09-20T03:22:15.165Z,16.48
2018-09-20T03:23:16.535Z,16.47
2018-09-20T03:24:17.932Z,16.37
2018-09-20T03:25:19.308Z,16.47
2018-09-20T03:26:20.693Z,16.41
2018-09-20T03:27:22.078Z,16.37
2018-09-20T03:28:23.457Z,16.26
2018-09-20T03:29:24.842Z,16.32
2018-09-20T03:30:26.257Z,16.32
2018-09-20T03:31:27.617Z,16.22
2018-09-20T03:32:29.004Z,16.23
2018-09-20T03:33:31.144Z,16.18
2018-09-20T03:34:32.533Z,16.23
2018-09-20T03:35:33.927Z,16.14
2018-09-20T03:36:35.304Z,16.14
2018-09-20T03:37:36.692Z,16.13
2018-09-20T03:38:38.078Z,16.17
2018-09-20T03:39:39.462Z,16.17
2018-09-20T03:40:40.845Z,16.13
2018-09-20T03:41:42.225Z,16.14
2018-09-20T03:42:43.611Z,16.18
2018-09-20T03:43:44.989Z,16.16
2018-09-20T03:44:46.371Z,16.11
2018-09-20T03:45:47.764Z,16.11
2018-09-20T03:46:49.136Z,16.13
2018-09-20T03:47:50.520Z,16.13
2018-09-20T03:48:51.909Z,16.08
2018-09-20T03:49:53.288Z,16.07
2018-09-20T03:50:54.676Z,16.08
2018-09-20T03:51:56.055Z,16.08
2018-09-20T03:52:57.445Z,16.10
2018-09-20T03:53:58.826Z,16.11
2018-09-20T03:55:00.220Z,16.11
2018-09-20T03:56:01.599Z,16.08
2018-09-20T03:57:02.987Z,16.01
2018-09-20T03:58:04.372Z,16.03
2018-09-20T03:59:05.758Z,16.13
2018-09-20T04:00:07.141Z,16.08
2018-09-20T04:01:08.528Z,16.06
2018-09-20T04:02:09.912Z,16.01
2018-09-20T04:03:11.290Z,16.18
2018-09-20T04:04:12.670Z,16.14
2018-09-20T04:05:14.058Z,16.10
2018-09-20T04:06:15.443Z,16.11
2018-09-20T04:07:16.826Z,16.17
2018-09-20T04:08:18.211Z,16.26
2018-09-20T04:09:19.599Z,16.14
2018-09-20T04:10:20.975Z,16.13
2018-09-20T04:11:22.373Z,16.08
2018-09-20T04:12:23.764Z,16.13
2018-09-20T04:13:25.143Z,16.14
2018-09-20T04:14:26.533Z,16.10
2018-09-20T04:15:27.919Z,16.13
2018-09-20T04:16:29.314Z,16.17
2018-09-20T04:17:30.683Z,16.17
2018-09-20T04:18:32.074Z,16.23
2018-09-20T04:19:33.457Z,16.11
2018-09-20T04:20:34.850Z,16.08
2018-09-20T04:21:36.226Z,16.18
2018-09-20T04:22:37.608Z,16.10
2018-09-20T04:23:38.990Z,16.17
2018-09-20T04:24:40.380Z,16.13
2018-09-20T04:25:41.766Z,16.17
2018-09-20T04:26:43.156Z,16.11
2018-09-20T04:27:44.542Z,16.18
2018-09-20T04:28:45.917Z,16.17
2018-09-20T04:29:47.302Z,16.16
2018-09-20T04:30:48.695Z,16.11
2018-09-20T04:31:50.113Z,16.13
2018-09-20T04:32:51.461Z,16.23
2018-09-20T04:33:52.849Z,16.07
2018-09-20T04:34:54.229Z,16.07
2018-09-20T04:35:55.613Z,16.08
2018-09-20T04:36:57.002Z,16.11
2018-09-20T04:37:58.383Z,16.06
2018-09-20T04:38:59.769Z,16.08
2018-09-20T04:40:01.157Z,16.06
2018-09-20T04:41:02.553Z,16.06
2018-09-20T04:42:03.930Z,16.17
2018-09-20T04:43:05.322Z,16.18
2018-09-20T04:44:06.703Z,16.16
2018-09-20T04:45:08.092Z,16.23
2018-09-20T04:46:09.476Z,16.22
2018-09-20T04:47:10.867Z,16.23
2018-09-20T04:48:12.256Z,16.14
2018-09-20T04:49:13.639Z,16.23
2018-09-20T04:50:15.021Z,16.17
2018-09-20T04:51:16.402Z,16.18
2018-09-20T04:52:17.794Z,16.25
2018-09-20T04:53:19.222Z,16.14
2018-09-20T04:54:20.569Z,16.16
2018-09-20T04:55:21.964Z,16.23
2018-09-20T04:56:23.345Z,16.13
2018-09-20T04:57:24.732Z,16.27
2018-09-20T04:58:26.115Z,16.10
2018-09-20T04:59:27.500Z,16.22
2018-09-20T05:00:29.729Z,16.26
2018-09-20T05:01:31.117Z,16.14
2018-09-20T05:02:32.511Z,16.11
2018-09-20T05:03:33.894Z,16.14
2018-09-20T05:04:35.278Z,16.16
2018-09-20T05:05:36.671Z,16.18
2018-09-20T05:06:38.062Z,16.18
2018-09-20T05:07:39.440Z,16.18
2018-09-20T05:08:40.835Z,16.07
2018-09-20T05:09:42.227Z,16.11
2018-09-20T05:10:43.621Z,16.07
2018-09-20T05:11:45.006Z,16.06
2018-09-20T05:12:46.412Z,16.11
2018-09-20T05:13:47.795Z,16.07
2018-09-20T05:14:49.180Z,16.11
2018-09-20T05:15:50.565Z,16.10
2018-09-20T05:16:51.966Z,16.08
2018-09-20T05:17:53.348Z,16.06
2018-09-20T05:18:54.737Z,16.14
2018-09-20T05:19:56.134Z,16.10
2018-09-20T05:20:57.512Z,16.03
2018-09-20T05:21:58.903Z,16.04
2018-09-20T05:23:00.292Z,16.07
2018-09-20T05:24:01.695Z,15.99
2018-09-20T05:25:03.080Z,16.08
2018-09-20T05:26:04.468Z,16.08
2018-09-20T05:27:05.853Z,16.06
2018-09-20T05:28:07.290Z,16.01
2018-09-20T05:29:08.633Z,15.91
2018-09-20T05:30:10.019Z,15.92
2018-09-20T05:31:11.407Z,15.89
2018-09-20T05:32:12.787Z,15.96
2018-09-20T05:33:14.217Z,15.96
2018-09-20T05:34:15.572Z,15.93
2018-09-20T05:35:16.961Z,15.93
2018-09-20T05:36:18.353Z,15.91
2018-09-20T05:37:19.747Z,15.95
2018-09-20T05:38:21.136Z,15.98
2018-09-20T05:39:22.527Z,15.91
2018-09-20T05:40:23.921Z,16.03
2018-09-20T05:41:25.301Z,15.98
2018-09-20T05:42:26.691Z,15.98
2018-09-20T05:43:28.120Z,15.99
2018-09-20T05:44:29.462Z,16.10
2018-09-20T05:45:30.850Z,16.11
2018-09-20T05:46:32.240Z,16.07
2018-09-20T05:47:33.632Z,16.06
2018-09-20T05:48:35.023Z,16.08
2018-09-20T05:49:36.412Z,16.13
2018-09-20T05:50:37.806Z,16.18
2018-09-20T05:51:39.198Z,16.14
2018-09-20T05:52:40.576Z,16.14
2018-09-20T05:53:41.975Z,16.13
2018-09-20T05:54:43.365Z,16.14
2018-09-20T05:55:44.775Z,16.18
2018-09-20T05:56:46.168Z,16.27
2018-09-20T05:57:47.552Z,16.26
2018-09-20T05:58:48.936Z,16.22
2018-09-20T05:59:50.326Z,16.27
2018-09-20T06:00:51.713Z,16.23
2018-09-20T06:01:53.105Z,16.26
2018-09-20T06:02:54.500Z,16.30
2018-09-20T06:03:55.879Z,16.30
2018-09-20T06:04:57.262Z,16.26
2018-09-20T06:05:58.692Z,16.23
2018-09-20T06:06:59.999Z,16.36
2018-09-20T06:08:01.396Z,16.44
2018-09-20T06:09:02.781Z,16.44
2018-09-20T06:10:04.175Z,16.50
2018-09-20T06:11:05.569Z,16.48
2018-09-20T06:12:06.962Z,16.52
2018-09-20T06:13:08.392Z,16.55
2018-09-20T06:14:09.743Z,16.55
2018-09-20T06:15:11.138Z,16.60
2018-09-20T06:16:12.524Z,16.52
2018-09-20T06:17:13.920Z,16.59
2018-09-20T06:18:15.303Z,16.55
2018-09-20T06:19:16.693Z,16.69
2018-09-20T06:20:18.076Z,16.72
2018-09-20T06:21:19.468Z,16.72
2018-09-20T06:22:20.846Z,16.69
2018-09-20T06:23:22.240Z,16.75
2018-09-20T06:24:23.631Z,16.82
2018-09-20T06:25:25.023Z,16.85
2018-09-20T06:26:26.415Z,16.92
2018-09-20T06:27:27.811Z,16.92
2018-09-20T06:28:29.203Z,16.98
2018-09-20T06:29:30.579Z,17.00
2018-09-20T06:30:31.968Z,17.05
2018-09-20T06:31:33.357Z,17.21
2018-09-20T06:32:34.742Z,17.25
2018-09-20T06:33:36.141Z,17.28
2018-09-20T06:34:37.525Z,17.39
2018-09-20T06:35:38.906Z,17.45
2018-09-20T06:36:40.302Z,17.54
2018-09-20T06:37:41.697Z,17.63
2018-09-20T06:38:43.088Z,17.81
2018-09-20T06:39:45.285Z,17.87
2018-09-20T06:40:46.680Z,17.94
2018-09-20T06:41:48.069Z,18.01
2018-09-20T06:42:49.460Z,18.13
2018-09-20T06:43:50.846Z,18.23
2018-09-20T06:44:52.230Z,18.19
2018-09-20T06:45:53.624Z,18.19
2018-09-20T06:46:55.013Z,18.29
2018-09-20T06:47:56.418Z,18.41
2018-09-20T06:48:57.802Z,18.39
2018-09-20T06:49:59.208Z,18.49
2018-09-20T06:51:00.592Z,18.56
2018-09-20T06:52:01.985Z,18.65
2018-09-20T06:53:03.367Z,18.76
2018-09-20T06:54:04.762Z,18.91
2018-09-20T06:55:06.159Z,19.06
2018-09-20T06:56:07.540Z,19.10
2018-09-20T06:57:08.926Z,19.34
2018-09-20T06:58:10.323Z,19.49
2018-09-20T06:59:11.721Z,19.53
2018-09-20T07:00:13.112Z,19.65
2018-09-20T07:01:14.503Z,19.75
2018-09-20T07:02:15.898Z,19.80
2018-09-20T07:03:17.367Z,20.00
2018-09-20T07:04:18.642Z,20.12
2018-09-20T07:05:20.030Z,20.31
2018-09-20T07:06:21.424Z,20.37
2018-09-20T07:07:22.818Z,20.54
2018-09-20T07:08:24.208Z,20.69
2018-09-20T07:09:25.600Z,20.79
2018-09-20T07:10:26.990Z,20.90
2018-09-20T07:11:28.385Z,21.00
2018-09-20T07:12:29.762Z,21.01
2018-09-20T07:13:31.763Z,21.05
2018-09-20T07:14:33.143Z,21.12
2018-09-20T07:15:34.526Z,21.03
2018-09-20T07:16:35.924Z,21.19
2018-09-20T07:17:37.317Z,21.28
2018-09-20T07:18:38.717Z,21.36
2018-09-20T07:19:40.103Z,21.43
2018-09-20T07:20:41.496Z,21.59
2018-09-20T07:21:42.894Z,21.71
2018-09-20T07:22:44.282Z,21.74
2018-09-20T07:23:45.675Z,21.85
2018-09-20T07:24:47.059Z,21.94
2018-09-20T07:25:48.456Z,21.89
2018-09-20T07:26:49.851Z,21.99
2018-09-20T07:27:51.249Z,22.12
2018-09-20T07:28:52.642Z,22.17
2018-09-20T07:29:54.042Z,22.24
2018-09-20T07:30:55.442Z,22.30
2018-09-20T07:31:56.840Z,22.35
2018-09-20T07:32:58.229Z,22.36
2018-09-20T07:33:59.625Z,22.31
2018-09-20T07:35:01.012Z,22.41
2018-09-20T07:36:02.398Z,22.49
2018-09-20T07:37:03.786Z,22.45
2018-09-20T07:38:05.186Z,22.60
2018-09-20T07:39:06.564Z,22.59
2018-09-20T07:40:07.958Z,22.66
2018-09-20T07:41:09.344Z,22.67
2018-09-20T07:42:10.735Z,22.67
2018-09-20T07:43:12.123Z,22.88
2018-09-20T07:44:13.513Z,22.82
2018-09-20T07:45:14.908Z,22.91
2018-09-20T07:46:16.307Z,22.96
2018-09-20T07:47:17.697Z,22.96
2018-09-20T07:48:19.093Z,22.91
2018-09-20T07:49:20.495Z,23.03
2018-09-20T07:50:21.882Z,22.91
2018-09-20T07:51:23.280Z,22.96
2018-09-20T07:52:24.675Z,23.01
2018-09-20T07:53:26.063Z,23.18
2018-09-20T07:54:27.465Z,23.12
2018-09-20T07:55:28.854Z,23.18
2018-09-20T07:56:30.286Z,23.22
2018-09-20T07:57:31.651Z,23.26
2018-09-20T07:58:33.030Z,23.31
2018-09-20T07:59:34.424Z,23.38
2018-09-20T08:00:35.821Z,23.35
2018-09-20T08:01:37.248Z,23.44
2018-09-20T08:02:38.566Z,23.44
2018-09-20T08:03:39.958Z,23.38
2018-09-20T08:04:41.352Z,23.56
2018-09-20T08:05:42.744Z,23.64
2018-09-20T08:06:44.136Z,23.69
2018-09-20T08:07:45.532Z,23.68
2018-09-20T08:08:46.914Z,23.71
2018-09-20T08:09:48.310Z,23.79
2018-09-20T08:10:49.712Z,23.86
2018-09-20T08:11:51.102Z,23.89
2018-09-20T08:12:52.504Z,23.90
2018-09-20T08:13:54.694Z,23.96
2018-09-20T08:14:56.079Z,23.97
2018-09-20T08:15:57.479Z,24.12
2018-09-20T08:16:58.880Z,24.09
2018-09-20T08:18:00.273Z,24.29
2018-09-20T08:19:01.675Z,24.27
2018-09-20T08:20:03.060Z,24.31
2018-09-20T08:21:04.451Z,24.31
2018-09-20T08:22:05.849Z,24.33
2018-09-20T08:23:07.249Z,24.48
2018-09-20T08:24:08.633Z,24.46
2018-09-20T08:25:10.037Z,24.51
2018-09-20T08:26:11.429Z,24.51
2018-09-20T08:27:12.814Z,24.60
2018-09-20T08:28:14.208Z,24.68
2018-09-20T08:29:15.606Z,24.68
2018-09-20T08:30:17.008Z,24.67
2018-09-20T08:31:18.397Z,24.84
2018-09-20T08:32:19.795Z,24.82
2018-09-20T08:33:21.197Z,24.86
2018-09-20T08:34:22.586Z,24.89
2018-09-20T08:35:23.974Z,24.83
2018-09-20T08:36:25.395Z,24.84
2018-09-20T08:37:26.775Z,24.82
2018-09-20T08:38:28.166Z,24.86
2018-09-20T08:39:29.572Z,24.92
2018-09-20T08:40:30.965Z,24.97
2018-09-20T08:41:32.350Z,25.01
2018-09-20T08:42:33.746Z,25.11
2018-09-20T08:43:35.144Z,25.14
2018-09-20T08:44:36.537Z,25.16
2018-09-20T08:45:37.936Z,25.20
2018-09-20T08:46:39.334Z,25.38
2018-09-20T08:47:40.733Z,25.36
2018-09-20T08:48:42.120Z,25.35
2018-09-20T08:49:43.518Z,25.48
2018-09-20T08:50:44.917Z,25.56
2018-09-20T08:51:46.301Z,25.49
2018-09-20T08:52:47.701Z,25.51
2018-09-20T08:53:49.112Z,25.56
2018-09-20T08:54:50.503Z,25.74
2018-09-20T08:55:51.895Z,25.67
2018-09-20T08:56:53.359Z,25.83
2018-09-20T08:57:54.639Z,25.67
2018-09-20T08:58:56.033Z,25.81
2018-09-20T08:59:57.430Z,25.91
2018-09-20T09:00:58.840Z,25.98
2018-09-20T09:02:00.232Z,26.19
2018-09-20T09:03:01.629Z,26.46
2018-09-20T09:04:03.015Z,26.86
2018-09-20T09:05:04.422Z,27.11
2018-09-20T09:06:05.827Z,27.30
2018-09-20T09:07:07.210Z,27.63
2018-09-20T09:08:08.605Z,27.66
2018-09-20T09:09:09.996Z,27.50
2018-09-20T09:10:11.392Z,27.27
2018-09-20T09:11:12.789Z,27.25
2018-09-20T09:12:14.186Z,27.38
2018-09-20T09:13:15.578Z,27.61
2018-09-20T09:14:16.991Z,27.71
2018-09-20T09:15:18.382Z,27.95
2018-09-20T09:16:19.781Z,28.18
2018-09-20T09:17:21.177Z,28.17
2018-09-20T09:18:22.575Z,28.33
2018-09-20T09:19:23.972Z,28.35
2018-09-20T09:20:25.365Z,28.28
2018-09-20T09:21:26.767Z,28.32
2018-09-20T09:22:28.711Z,28.20
2018-09-20T09:23:30.101Z,28.17
2018-09-20T09:24:32.050Z,28.18
2018-09-20T09:25:34.272Z,28.35
2018-09-20T09:26:35.669Z,28.38
2018-09-20T09:27:37.065Z,28.36
2018-09-20T09:28:38.500Z,28.33
2018-09-20T09:29:39.820Z,28.20
2018-09-20T09:30:41.222Z,28.40
2018-09-20T09:31:42.625Z,28.30
2018-09-20T09:32:44.017Z,28.32
2018-09-20T09:33:45.414Z,28.28
2018-09-20T09:34:46.818Z,28.35
2018-09-20T09:35:48.224Z,28.33
2018-09-20T09:36:49.623Z,28.32
2018-09-20T09:37:51.012Z,28.30
2018-09-20T09:38:52.414Z,28.27
2018-09-20T09:39:54.582Z,28.20
2018-09-20T09:40:55.984Z,28.33
2018-09-20T09:41:57.377Z,28.25
2018-09-20T09:42:58.775Z,28.18
2018-09-20T09:44:00.174Z,28.14
2018-09-20T09:45:01.574Z,28.28
2018-09-20T09:46:02.981Z,28.32
2018-09-20T09:47:04.375Z,28.18
2018-09-20T09:48:05.802Z,28.27
2018-09-20T09:49:07.183Z,28.17
2018-09-20T09:50:08.584Z,28.15
2018-09-20T09:51:09.985Z,28.20
2018-09-20T09:52:11.384Z,28.11
2018-09-20T09:53:12.785Z,28.17
2018-09-20T09:54:14.199Z,28.23
2018-09-20T09:55:15.575Z,28.23
2018-09-20T09:56:16.974Z,28.15
2018-09-20T09:57:18.375Z,28.21
2018-09-20T09:58:19.778Z,28.06
2018-09-20T09:59:21.183Z,27.98
2018-09-20T10:00:22.574Z,28.05
2018-09-20T10:01:23.972Z,28.05
2018-09-20T10:02:25.422Z,28.08
2018-09-20T10:03:26.766Z,28.06
2018-09-20T10:04:28.166Z,28.01
2018-09-20T10:05:29.560Z,28.06
2018-09-20T10:06:30.974Z,28.25
2018-09-20T10:07:32.373Z,28.30
2018-09-20T10:08:33.771Z,28.33
2018-09-20T10:09:35.170Z,28.21
2018-09-20T10:10:36.566Z,28.18
2018-09-20T10:11:37.972Z,28.20
2018-09-20T10:12:39.367Z,28.17
2018-09-20T10:13:40.785Z,28.30
2018-09-20T10:14:43.098Z,28.17
2018-09-20T10:15:44.492Z,28.17
2018-09-20T10:16:45.897Z,28.11
2018-09-20T10:17:47.290Z,28.15
2018-09-20T10:18:48.681Z,28.21
2018-09-20T10:19:50.090Z,28.06
2018-09-20T10:20:51.478Z,27.99
2018-09-20T10:21:52.874Z,27.83
2018-09-20T10:22:54.264Z,27.61
2018-09-20T10:23:55.718Z,27.61
2018-09-20T10:24:57.058Z,27.52
2018-09-20T10:25:58.457Z,27.35
2018-09-20T10:26:59.860Z,27.30
2018-09-20T10:28:01.268Z,27.24
2018-09-20T10:29:02.656Z,27.27
2018-09-20T10:30:04.042Z,27.39
2018-09-20T10:31:05.439Z,27.35
2018-09-20T10:32:06.841Z,27.31
2018-09-20T10:33:08.240Z,27.34
2018-09-20T10:34:09.705Z,27.33
2018-09-20T10:35:10.983Z,27.27
2018-09-20T10:36:12.379Z,27.21
2018-09-20T10:37:13.783Z,27.28
2018-09-20T10:38:15.171Z,27.31
2018-09-20T10:39:16.581Z,27.28
2018-09-20T10:40:17.984Z,27.35
2018-09-20T10:41:19.371Z,27.39
2018-09-20T10:42:20.784Z,27.27
2018-09-20T10:43:22.175Z,27.23
2018-09-20T10:44:23.572Z,27.31
2018-09-20T10:45:24.976Z,27.25
2018-09-20T10:46:26.366Z,27.12
2018-09-20T10:47:27.767Z,27.13
2018-09-20T10:48:29.169Z,27.15
2018-09-20T10:49:30.574Z,27.24
2018-09-20T10:50:31.972Z,27.31
2018-09-20T10:51:33.359Z,27.34
2018-09-20T10:52:34.755Z,27.43
2018-09-20T10:53:36.158Z,27.33
2018-09-20T10:54:37.634Z,27.27
2018-09-20T10:55:38.985Z,27.13
2018-09-20T10:56:40.351Z,27.09
2018-09-20T10:57:41.742Z,26.94
2018-09-20T10:58:43.147Z,27.08
2018-09-20T10:59:44.545Z,26.87
2018-09-20T11:00:45.945Z,26.93
2018-09-20T11:01:47.341Z,26.90
2018-09-20T11:02:48.746Z,26.88
2018-09-20T11:03:50.137Z,26.79
2018-09-20T11:04:51.534Z,26.83
2018-09-20T11:05:52.936Z,26.87
2018-09-20T11:06:54.356Z,26.98
2018-09-20T11:07:55.743Z,26.98
2018-09-20T11:08:57.146Z,26.91
2018-09-20T11:09:58.539Z,26.91
2018-09-20T11:10:59.980Z,27.12
2018-09-20T11:12:01.276Z,26.96
2018-09-20T11:13:02.680Z,26.90
2018-09-20T11:14:04.080Z,26.83
2018-09-20T11:15:05.478Z,26.75
2018-09-20T11:16:06.874Z,26.75
2018-09-20T11:17:08.279Z,26.83
2018-09-20T11:18:09.668Z,26.96
2018-09-20T11:19:11.066Z,26.97
2018-09-20T11:20:12.465Z,27.08
2018-09-20T11:21:13.862Z,27.06
2018-09-20T11:22:15.262Z,27.21
2018-09-20T11:23:16.662Z,27.31
2018-09-20T11:24:18.068Z,27.28
2018-09-20T11:25:19.480Z,27.38
2018-09-20T11:26:20.869Z,27.45
2018-09-20T11:27:22.999Z,27.63
2018-09-20T11:28:24.405Z,27.63
2018-09-20T11:29:25.814Z,27.62
2018-09-20T11:30:27.205Z,27.63
2018-09-20T11:31:28.612Z,27.61
2018-09-20T11:32:30.016Z,27.66
2018-09-20T11:33:31.403Z,27.65
2018-09-20T11:34:32.803Z,27.71
2018-09-20T11:35:34.208Z,27.71
2018-09-20T11:36:35.606Z,27.80
2018-09-20T11:37:36.997Z,27.78
2018-09-20T11:38:38.400Z,27.74
2018-09-20T11:39:39.793Z,27.65
2018-09-20T11:40:41.197Z,27.68
2018-09-20T11:41:42.603Z,27.69
2018-09-20T11:42:44.006Z,27.68
2018-09-20T11:43:45.404Z,27.71
2018-09-20T11:44:46.798Z,27.71
2018-09-20T11:45:48.203Z,27.77
2018-09-20T11:46:49.600Z,27.84
2018-09-20T11:47:50.995Z,27.86
2018-09-20T11:48:52.393Z,27.78
2018-09-20T11:49:53.788Z,27.83
2018-09-20T11:50:55.197Z,27.88
2018-09-20T11:51:56.598Z,27.96
2018-09-20T11:52:58.000Z,27.80
2018-09-20T11:53:59.404Z,27.88
2018-09-20T11:55:00.811Z,27.80
2018-09-20T11:56:02.213Z,27.76
2018-09-20T11:57:03.615Z,27.78
2018-09-20T11:58:05.007Z,27.83
2018-09-20T11:59:06.396Z,27.83
2018-09-20T12:00:07.795Z,27.93
2018-09-20T12:01:09.234Z,27.76
2018-09-20T12:02:10.616Z,27.77
2018-09-20T12:03:12.003Z,27.81
2018-09-20T12:04:13.396Z,27.83
2018-09-20T12:05:14.799Z,27.80
2018-09-20T12:06:16.193Z,27.77
2018-09-20T12:07:17.602Z,27.71
2018-09-20T12:08:18.996Z,27.65
2018-09-20T12:09:20.394Z,27.76
2018-09-20T12:10:21.787Z,27.72
2018-09-20T12:11:23.191Z,27.78
2018-09-20T12:12:24.595Z,27.84
2018-09-20T12:13:26.004Z,27.93
2018-09-20T12:14:27.486Z,27.98
2018-09-20T12:15:28.794Z,27.99
2018-09-20T12:16:30.191Z,27.95
2018-09-20T12:17:31.590Z,27.95
2018-09-20T12:18:33.000Z,27.93
2018-09-20T12:19:34.393Z,28.02
2018-09-20T12:20:35.796Z,28.01
2018-09-20T12:21:37.188Z,28.02
2018-09-20T12:22:38.587Z,27.99
2018-09-20T12:23:39.982Z,28.06
2018-09-20T12:24:41.378Z,27.95
2018-09-20T12:25:42.783Z,27.83
2018-09-20T12:26:44.175Z,27.83
2018-09-20T12:27:45.564Z,27.72
2018-09-20T12:28:46.965Z,27.63
2018-09-20T12:29:48.360Z,27.55
2018-09-20T12:30:49.757Z,27.48
2018-09-20T12:31:51.198Z,27.59
2018-09-20T12:32:52.615Z,27.63
2018-09-20T12:33:53.958Z,27.58
2018-09-20T12:34:55.355Z,27.59
2018-09-20T12:35:56.766Z,27.77
2018-09-20T12:36:58.147Z,27.77
2018-09-20T12:37:59.557Z,27.77
2018-09-20T12:39:00.938Z,27.77
2018-09-20T12:40:02.334Z,27.86
2018-09-20T12:41:03.737Z,27.93
2018-09-20T12:42:05.137Z,27.93
2018-09-20T12:43:06.567Z,27.96
2018-09-20T12:44:07.945Z,27.83
2018-09-20T12:45:09.344Z,27.93
2018-09-20T12:46:10.733Z,27.95
2018-09-20T12:47:12.126Z,27.98
2018-09-20T12:48:13.550Z,27.98
2018-09-20T12:49:14.924Z,27.99
2018-09-20T12:50:16.323Z,28.13
2018-09-20T12:51:17.719Z,27.98
2018-09-20T12:52:19.123Z,28.06
2018-09-20T12:53:20.530Z,28.08
2018-09-20T12:54:21.922Z,28.09
2018-09-20T12:55:23.320Z,28.13
2018-09-20T12:56:24.716Z,27.99
2018-09-20T12:57:26.113Z,27.98
2018-09-20T12:58:27.506Z,28.05
2018-09-20T12:59:28.907Z,27.95
2018-09-20T13:00:30.311Z,27.90
2018-09-20T13:01:31.753Z,27.93
2018-09-20T13:02:33.107Z,27.96
2018-09-20T13:03:34.511Z,27.95
2018-09-20T13:04:35.907Z,28.03
2018-09-20T13:05:37.303Z,27.95
2018-09-20T13:06:38.697Z,27.96
2018-09-20T13:07:40.100Z,27.96
2018-09-20T13:08:41.501Z,28.01
2018-09-20T13:09:42.894Z,27.91
2018-09-20T13:10:44.295Z,27.88